createdAt,value
2022-10-11T00:01:43.700Z,101663.41
2022-10-11T00:04:10.683Z,101661.97
2022-10-11T00:06:38.457Z,101666.09
2022-10-11T00:09:06.040Z,101673.88
2022-10-11T00:11:32.954Z,101676.09
2022-10-11T00:13:59.510Z,101689.13
2022-10-11T00:16:26.079Z,101681.81
2022-10-11T00:18:52.745Z,101673.88
2022-10-11T00:21:21.132Z,101685.78
2022-10-11T00:23:49.270Z,101691.03
2022-10-11T00:26:16.555Z,101691.50
2022-10-11T00:28:43.322Z,101686.25
2022-10-11T00:31:13.740Z,101683.03
2022-10-11T00:33:40.442Z,101687.19
2022-10-11T00:36:08.919Z,101690.50
2022-10-11T00:38:35.837Z,101687.28
2022-10-11T00:41:02.574Z,101689.34
2022-10-11T00:43:31.187Z,101695.06
2022-10-11T00:45:57.658Z,101694.75
2022-10-11T00:48:31.893Z,101691.56
2022-10-11T00:51:01.453Z,101686.78
2022-10-11T00:53:32.584Z,101699.78
2022-10-11T00:56:13.340Z,101700.72
2022-10-11T00:58:42.223Z,101707.28
2022-10-11T01:01:09.335Z,101703.28
2022-10-11T01:03:38.098Z,101709.13
2022-10-11T01:06:05.551Z,101718.97
2022-10-11T01:08:32.862Z,101719.78
2022-10-11T01:10:59.841Z,101714.19
2022-10-11T01:13:56.335Z,101726.44
2022-10-11T01:16:38.259Z,101733.88
2022-10-11T01:19:47.522Z,101723.50
2022-10-11T01:22:38.254Z,101735.28
2022-10-11T01:25:16.629Z,101734.16
2022-10-11T01:27:54.946Z,101736.22
2022-10-11T01:30:23.225Z,101729.84
2022-10-11T01:33:10.723Z,101743.19
2022-10-11T01:35:46.356Z,101742.84
2022-10-11T01:38:27.147Z,101736.13
2022-10-11T01:40:59.831Z,101744.25
2022-10-11T01:43:27.690Z,101741.84
2022-10-11T01:45:57.536Z,101749.19
2022-10-11T01:48:24.364Z,101747.56
2022-10-11T01:50:54.697Z,101740.41
2022-10-11T01:53:39.858Z,101755.50
2022-10-11T01:56:22.785Z,101756.75
2022-10-11T01:59:16.711Z,101756.41
2022-10-11T02:01:56.635Z,101751.31
2022-10-11T02:04:45.033Z,101751.31
2022-10-11T02:07:14.374Z,101763.06
2022-10-11T02:09:44.390Z,101761.13
2022-10-11T02:12:16.010Z,101764.00
2022-10-11T02:14:47.483Z,101760.34
2022-10-11T02:17:19.268Z,101767.78
2022-10-11T02:19:50.316Z,101767.78
2022-10-11T02:22:24.585Z,101757.28
2022-10-11T02:24:55.600Z,101764.59
2022-10-11T02:27:25.795Z,101761.41
2022-10-11T02:29:54.609Z,101769.53
2022-10-11T02:32:25.494Z,101763.59
2022-10-11T02:35:02.477Z,101769.63
2022-10-11T02:37:50.694Z,101772.03
2022-10-11T02:40:32.116Z,101770.44
2022-10-11T02:43:03.530Z,101768.84
2022-10-11T02:45:48.249Z,101765.19
2022-10-11T02:48:15.625Z,101773.31
2022-10-11T02:50:44.221Z,101780.72
2022-10-11T02:53:11.146Z,101785.31
2022-10-11T02:55:37.853Z,101786.44
2022-10-11T02:58:04.398Z,101786.44
2022-10-11T03:00:31.217Z,101788.50
2022-10-11T03:02:57.902Z,101787.72
2022-10-11T03:05:24.421Z,101798.19
2022-10-11T03:07:51.131Z,101799.47
2022-10-11T03:10:17.661Z,101800.72
2022-10-11T03:12:44.239Z,101799.16
2022-10-11T03:15:11.187Z,101801.53
2022-10-11T03:17:37.805Z,101804.50
2022-10-11T03:20:06.390Z,101804.97
2022-10-11T03:22:33.199Z,101817.22
2022-10-11T03:25:03.553Z,101809.91
2022-10-11T03:27:32.074Z,101824.19
2022-10-11T03:29:58.699Z,101825.44
2022-10-11T03:32:25.774Z,101820.31
2022-10-11T03:34:52.366Z,101833.66
2022-10-11T03:37:19.152Z,101821.59
2022-10-11T03:39:46.021Z,101824.44
2022-10-11T03:42:13.728Z,101823.63
2022-10-11T03:44:42.011Z,101837.13
2022-10-11T03:47:09.089Z,101825.00
2022-10-11T03:49:39.883Z,101825.91
2022-10-11T03:52:09.182Z,101825.91
2022-10-11T03:54:35.686Z,101837.72
2022-10-11T03:57:02.245Z,101841.03
2022-10-11T03:59:28.877Z,101847.19
2022-10-11T04:01:55.518Z,101844.34
2022-10-11T04:04:22.068Z,101848.91
2022-10-11T04:06:48.613Z,101850.97
2022-10-11T04:09:15.546Z,101845.72
2022-10-11T04:11:42.358Z,101846.63
2022-10-11T04:14:09.028Z,101860.44
2022-10-11T04:16:38.580Z,101865.38
2022-10-11T04:19:05.939Z,101863.75
2022-10-11T04:21:32.555Z,101879.75
2022-10-11T04:23:59.408Z,101871.63
2022-10-11T04:26:26.024Z,101874.16
2022-10-11T04:28:52.725Z,101883.53
2022-10-11T04:31:19.495Z,101883.53
2022-10-11T04:33:46.182Z,101886.38
2022-10-11T04:36:12.868Z,101897.47
2022-10-11T04:38:39.521Z,101894.59
2022-10-11T04:41:10.997Z,101891.09
2022-10-11T04:43:37.946Z,101896.81
2022-10-11T04:46:05.989Z,101900.09
2022-10-11T04:48:33.096Z,101905.00
2022-10-11T04:50:59.622Z,101908.78
2022-10-11T04:53:26.124Z,101905.13
2022-10-11T04:56:05.549Z,101907.31
2022-10-11T04:58:33.908Z,101913.81
2022-10-11T05:01:01.245Z,101909.34
2022-10-11T05:03:28.265Z,101922.03
2022-10-11T05:05:54.879Z,101933.91
2022-10-11T05:08:23.198Z,101933.91
2022-10-11T05:11:07.674Z,101934.00
2022-10-11T05:13:35.054Z,101937.88
2022-10-11T05:16:05.952Z,101947.25
2022-10-11T05:18:36.786Z,101937.53
2022-10-11T05:21:07.018Z,101944.03
2022-10-11T05:23:35.283Z,101946.91
2022-10-11T05:26:03.239Z,101947.34
2022-10-11T05:28:30.322Z,101947.47
2022-10-11T05:30:56.991Z,101949.88
2022-10-11T05:33:24.066Z,101949.53
2022-10-11T05:35:50.906Z,101952.84
2022-10-11T05:38:17.848Z,101958.53
2022-10-11T05:40:44.668Z,101965.16
2022-10-11T05:43:11.616Z,101967.22
2022-10-11T05:45:40.570Z,101970.88
2022-10-11T05:48:07.886Z,101984.78
2022-10-11T05:50:35.369Z,101989.22
2022-10-11T05:53:03.023Z,101986.81
2022-10-11T05:55:29.721Z,101986.03
2022-10-11T05:57:57.421Z,101985.69
2022-10-11T06:00:24.672Z,101998.34
2022-10-11T06:02:51.294Z,101991.75
2022-10-11T06:05:18.479Z,102003.16
2022-10-11T06:07:45.051Z,101999.50
2022-10-11T06:10:11.920Z,102002.81
2022-10-11T06:12:38.902Z,102008.88
2022-10-11T06:15:06.476Z,102009.66
2022-10-11T06:17:33.142Z,101996.66
2022-10-11T06:19:59.832Z,102006.00
2022-10-11T06:22:26.740Z,102013.34
2022-10-11T06:24:53.380Z,102014.13
2022-10-11T06:27:20.098Z,102021.00
2022-10-11T06:29:47.017Z,102030.00
2022-10-11T06:32:14.353Z,102024.75
2022-10-11T06:34:40.971Z,102025.09
2022-10-11T06:37:08.009Z,102033.22
2022-10-11T06:39:35.058Z,102035.25
2022-10-11T06:42:02.209Z,102040.97
2022-10-11T06:44:29.421Z,102038.91
2022-10-11T06:46:56.164Z,102043.00
2022-10-11T06:49:23.616Z,102041.31
2022-10-11T06:51:51.028Z,102040.53
2022-10-11T06:54:17.856Z,102042.56
2022-10-11T06:56:45.787Z,102037.19
2022-10-11T06:59:13.525Z,102041.66
2022-10-11T07:01:42.002Z,102043.28
2022-10-11T07:04:08.738Z,102042.00
2022-10-11T07:06:40.443Z,102049.31
2022-10-11T07:09:08.085Z,102046.81
2022-10-11T07:11:35.435Z,102049.22
2022-10-11T07:14:07.423Z,102053.22
2022-10-11T07:16:36.077Z,102053.56
2022-10-11T07:19:06.046Z,102052.78
2022-10-11T07:21:34.598Z,102066.16
2022-10-11T07:24:02.006Z,102058.03
2022-10-11T07:26:33.745Z,102066.03
2022-10-11T07:29:04.355Z,102069.25
2022-10-11T07:31:31.879Z,102064.81
2022-10-11T07:33:58.553Z,102074.50
2022-10-11T07:36:25.946Z,102071.63
2022-10-11T07:38:52.753Z,102071.63
2022-10-11T07:41:19.838Z,102079.75
2022-10-11T07:43:49.513Z,102088.22
2022-10-11T07:46:17.337Z,102090.28
2022-10-11T07:48:44.046Z,102094.28
2022-10-11T07:51:16.507Z,102097.94
2022-10-11T07:53:51.443Z,102089.38
2022-10-11T07:56:21.254Z,102091.78
2022-10-11T07:58:53.464Z,102091.00
2022-10-11T08:01:21.042Z,102087.69
2022-10-11T08:03:48.577Z,102082.75
2022-10-11T08:06:19.601Z,102097.03
2022-10-11T08:08:47.633Z,102098.66
2022-10-11T08:11:22.548Z,102098.28
2022-10-11T08:13:49.156Z,102101.50
2022-10-11T08:16:15.797Z,102105.50
2022-10-11T08:18:42.347Z,102103.88
2022-10-11T08:21:16.320Z,102110.75
2022-10-11T08:23:43.374Z,102105.59
2022-10-11T08:26:10.542Z,102100.69
2022-10-11T08:28:37.264Z,102107.91
2022-10-11T08:31:04.248Z,102102.97
2022-10-11T08:33:31.199Z,102109.06
2022-10-11T08:35:58.546Z,102112.25
2022-10-11T08:38:25.123Z,102104.47
2022-10-11T08:40:56.941Z,102116.63
2022-10-11T08:43:29.726Z,102112.50
2022-10-11T08:46:00.127Z,102114.09
2022-10-11T08:48:50.412Z,102112.50
2022-10-11T08:51:39.974Z,102110.00
2022-10-11T08:54:11.872Z,102113.19
2022-10-11T08:56:40.109Z,102122.09
2022-10-11T08:59:12.669Z,102122.81
2022-10-11T09:01:47.543Z,102121.56
2022-10-11T09:04:16.307Z,102127.63
2022-10-11T09:06:56.167Z,102119.84
2022-10-11T09:09:33.509Z,102130.38
2022-10-11T09:12:30.989Z,102134.84
2022-10-11T09:15:18.183Z,102141.69
2022-10-11T09:18:09.356Z,102130.63
2022-10-11T09:20:56.478Z,102134.72
2022-10-11T09:23:44.317Z,102141.94
2022-10-11T09:26:41.064Z,102139.44
2022-10-11T09:29:12.417Z,102139.31
2022-10-11T09:31:39.198Z,102141.25
2022-10-11T09:34:11.626Z,102131.78
2022-10-11T09:36:44.808Z,102134.53
2022-10-11T09:39:45.895Z,102132.47
2022-10-11T09:42:13.016Z,102128.72
2022-10-11T09:44:50.808Z,102129.97
2022-10-11T09:47:21.637Z,102136.25
2022-10-11T09:50:04.213Z,102144.38
2022-10-11T09:52:31.034Z,102136.13
2022-10-11T09:55:00.681Z,102143.34
2022-10-11T09:57:36.024Z,102144.47
2022-10-11T10:00:15.682Z,102140.38
2022-10-11T10:02:47.183Z,102132.50
2022-10-11T10:05:18.276Z,102143.03
2022-10-11T10:08:23.096Z,102147.13
2022-10-11T10:11:05.419Z,102149.88
2022-10-11T10:13:56.019Z,102151.03
2022-10-11T10:16:29.908Z,102151.69
2022-10-11T10:19:25.932Z,102157.41
2022-10-11T10:21:55.153Z,102143.81
2022-10-11T10:24:30.528Z,102154.34
2022-10-11T10:27:21.026Z,102153.06
2022-10-11T10:30:08.857Z,102152.19
2022-10-11T10:33:03.593Z,102160.75
2022-10-11T10:35:45.596Z,102163.06
2022-10-11T10:38:32.937Z,102169.25
2022-10-11T10:41:06.645Z,102165.81
2022-10-11T10:43:35.973Z,102160.41
2022-10-11T10:46:25.549Z,102168.53
2022-10-11T10:49:41.613Z,102160.16
2022-10-11T10:52:09.286Z,102178.50
2022-10-11T10:54:48.768Z,102178.38
2022-10-11T10:57:26.046Z,102171.84
2022-10-11T11:00:14.600Z,102176.66
2022-10-11T11:02:53.745Z,102174.47
2022-10-11T11:05:57.681Z,102174.81
2022-10-11T11:08:49.524Z,102180.88
2022-10-11T11:11:21.917Z,102165.97
2022-10-11T11:13:58.587Z,102174.94
2022-10-11T11:16:30.965Z,102172.72
2022-10-11T11:19:08.479Z,102173.06
2022-10-11T11:22:11.077Z,102181.66
2022-10-11T11:24:50.657Z,102168.34
2022-10-11T11:27:41.637Z,102169.16
2022-10-11T11:30:36.677Z,102164.25
2022-10-11T11:33:48.475Z,102169.03
2022-10-11T11:36:23.801Z,102173.72
2022-10-11T11:39:00.114Z,102171.97
2022-10-11T11:41:33.246Z,102171.88
2022-10-11T11:44:26.452Z,102166.94
2022-10-11T11:47:03.323Z,102170.94
2022-10-11T11:49:41.376Z,102175.63
2022-10-11T11:52:16.298Z,102181.22
2022-10-11T11:54:51.905Z,102175.34
2022-10-11T11:58:07.122Z,102172.84
2022-10-11T12:04:31.927Z,102166.50
2022-10-11T12:07:15.848Z,102171.63
2022-10-11T12:09:46.564Z,102164.06
2022-10-11T12:12:39.396Z,102169.44
2022-10-11T12:15:26.755Z,102168.84
2022-10-11T12:17:53.122Z,102172.69
2022-10-11T12:20:38.584Z,102175.91
2022-10-11T12:23:30.763Z,102167.66
2022-10-11T12:26:28.257Z,102171.19
2022-10-11T12:29:27.407Z,102173.44
2022-10-11T12:32:01.243Z,102173.78
2022-10-11T12:37:19.480Z,102179.59
2022-10-11T12:39:54.460Z,102179.59
2022-10-11T12:42:25.471Z,102172.00
2022-10-11T12:45:10.645Z,102175.66
2022-10-11T12:47:46.704Z,102164.38
2022-10-11T12:50:22.804Z,102172.03
2022-10-11T12:53:12.033Z,102162.63
2022-10-11T12:55:59.870Z,102165.38
2022-10-11T12:58:29.812Z,102160.28
2022-10-11T13:00:57.746Z,102162.22
2022-10-11T13:03:33.496Z,102156.81
2022-10-11T13:06:10.421Z,102160.81
2022-10-11T13:08:43.059Z,102148.53
2022-10-11T13:11:16.325Z,102156.53
2022-10-11T13:13:49.643Z,102153.69
2022-10-11T13:16:23.879Z,102151.44
2022-10-11T13:18:56.159Z,102148.91
2022-10-11T13:21:36.145Z,102157.03
2022-10-11T13:24:11.734Z,102156.91
2022-10-11T13:26:38.763Z,102152.28
2022-10-11T13:29:15.430Z,102152.28
2022-10-11T13:31:44.650Z,102155.94
2022-10-11T13:34:12.740Z,102158.22
2022-10-11T13:36:40.795Z,102154.06
2022-10-11T13:39:07.838Z,102154.88
2022-10-11T13:41:35.237Z,102162.19
2022-10-11T13:44:03.575Z,102154.72
2022-10-11T13:46:31.517Z,102157.59
2022-10-11T13:49:00.430Z,102160.47
2022-10-11T13:51:30.556Z,102160.31
2022-10-11T13:54:06.170Z,102155.97
2022-10-11T13:56:41.979Z,102163.97
2022-10-11T13:59:18.497Z,102157.44
2022-10-11T14:01:46.250Z,102168.13
2022-10-11T14:04:17.629Z,102168.13
2022-10-11T14:06:52.318Z,102162.38
2022-10-11T14:09:23.223Z,102165.56
2022-10-11T14:11:50.326Z,102159.84
2022-10-11T14:14:35.584Z,102167.66
2022-10-11T14:17:06.566Z,102165.25
2022-10-11T14:19:32.942Z,102163.50
2022-10-11T14:21:59.361Z,102164.31
2022-10-11T14:24:25.787Z,102158.56
2022-10-11T14:26:54.736Z,102165.09
2022-10-11T14:29:25.723Z,102159.84
2022-10-11T14:31:56.603Z,102151.22
2022-10-11T14:34:25.650Z,102148.34
2022-10-11T14:36:53.538Z,102145.47
2022-10-11T14:39:22.656Z,102154.41
2022-10-11T14:41:50.281Z,102158.09
2022-10-11T14:44:17.496Z,102155.22
2022-10-11T14:46:45.615Z,102152.84
2022-10-11T14:49:28.637Z,102160.97
2022-10-11T14:51:57.578Z,102160.50
2022-10-11T14:54:25.884Z,102152.34
2022-10-11T14:56:54.719Z,102164.16
2022-10-11T14:59:24.081Z,102152.84
2022-10-11T15:01:53.424Z,102154.41
2022-10-11T15:04:21.860Z,102157.63
2022-10-11T15:06:51.162Z,102155.56
2022-10-11T15:09:20.766Z,102162.91
2022-10-11T15:11:48.945Z,102160.81
2022-10-11T15:14:16.071Z,102156.34
2022-10-11T15:16:42.952Z,102152.69
2022-10-11T15:19:24.984Z,102151.88
2022-10-11T15:21:52.726Z,102151.06
2022-10-11T15:24:22.439Z,102154.13
2022-10-11T15:26:49.483Z,102150.94
2022-10-11T15:29:17.846Z,102148.72
2022-10-11T15:31:45.801Z,102151.56
2022-10-11T15:34:12.351Z,102152.38
2022-10-11T15:36:39.029Z,102156.06
2022-10-11T15:39:24.246Z,102160.19
2022-10-11T15:41:50.696Z,102158.94
2022-10-11T15:44:17.093Z,102157.31
2022-10-11T15:46:43.775Z,102149.97
2022-10-11T15:49:13.672Z,102151.56
2022-10-11T15:51:40.609Z,102162.13
2022-10-11T15:54:07.143Z,102157.63
2022-10-11T15:56:33.961Z,102165.78
2022-10-11T15:59:00.548Z,102163.38
2022-10-11T16:01:27.226Z,102160.50
2022-10-11T16:03:53.853Z,102159.25
2022-10-11T16:06:20.760Z,102156.38
2022-10-11T16:08:47.874Z,102166.25
2022-10-11T16:11:14.892Z,102176.47
2022-10-11T16:13:41.490Z,102164.66
2022-10-11T16:16:08.992Z,102172.00
2022-10-11T16:18:36.385Z,102168.81
2022-10-11T16:21:07.859Z,102176.94
2022-10-11T16:23:34.881Z,102168.00
2022-10-11T16:26:05.182Z,102187.63
2022-10-11T16:28:32.485Z,102178.69
2022-10-11T16:30:59.187Z,102177.41
2022-10-11T16:33:26.592Z,102180.28
2022-10-11T16:35:53.102Z,102180.28
2022-10-11T16:38:19.616Z,102183.63
2022-10-11T16:40:46.031Z,102182.84
2022-10-11T16:43:12.481Z,102185.25
2022-10-11T16:45:38.993Z,102186.03
2022-10-11T16:48:05.598Z,102182.84
2022-10-11T16:50:36.864Z,102177.09
2022-10-11T16:53:05.598Z,102184.09
2022-10-11T16:55:32.098Z,102173.91
2022-10-11T16:57:58.751Z,102186.19
2022-10-11T17:00:25.262Z,102188.25
2022-10-11T17:02:51.885Z,102194.00
2022-10-11T17:05:18.370Z,102181.38
2022-10-11T17:07:44.957Z,102181.84
2022-10-11T17:10:11.511Z,102179.78
2022-10-11T17:12:38.666Z,102189.19
2022-10-11T17:15:06.209Z,102183.94
2022-10-11T17:17:32.663Z,102179.94
2022-10-11T17:19:59.070Z,102184.88
2022-10-11T17:22:25.911Z,102179.94
2022-10-11T17:24:53.504Z,102179.13
2022-10-11T17:27:19.969Z,102179.94
2022-10-11T17:29:46.474Z,102176.75
2022-10-11T17:32:12.960Z,102176.25
2022-10-11T17:34:39.411Z,102178.78
2022-10-11T17:37:06.207Z,102180.09
2022-10-11T17:39:32.650Z,102177.22
2022-10-11T17:42:03.287Z,102182.63
2022-10-11T17:44:29.785Z,102185.97
2022-10-11T17:46:56.293Z,102192.50
2022-10-11T17:49:22.705Z,102192.50
2022-10-11T17:51:49.132Z,102184.38
2022-10-11T17:54:16.310Z,102187.22
2022-10-11T17:56:42.806Z,102190.09
2022-10-11T17:59:15.668Z,102185.63
2022-10-11T18:01:43.816Z,102184.84
2022-10-11T18:04:16.414Z,102186.09
2022-10-11T18:06:45.000Z,102172.22
2022-10-11T18:09:13.479Z,102188.97
2022-10-11T18:11:40.305Z,102184.97
2022-10-11T18:14:07.379Z,102179.25
2022-10-11T18:16:36.635Z,102171.44
2022-10-11T18:19:09.880Z,102169.03
2022-10-11T18:21:37.710Z,102181.75
2022-10-11T18:24:07.739Z,102178.91
2022-10-11T18:26:34.288Z,102180.66
2022-10-11T18:29:00.992Z,102184.31
2022-10-11T18:31:30.536Z,102175.38
2022-10-11T18:33:58.613Z,102186.41
2022-10-11T18:36:28.132Z,102179.03
2022-10-11T18:38:57.426Z,102178.25
2022-10-11T18:41:30.407Z,102169.31
2022-10-11T18:43:59.366Z,102170.28
2022-10-11T18:46:26.100Z,102175.06
2022-10-11T18:48:55.066Z,102179.19
2022-10-11T18:51:27.134Z,102167.72
2022-10-11T18:53:54.640Z,102162.91
2022-10-11T18:56:24.053Z,102164.53
2022-10-11T18:58:53.548Z,102162.91
2022-10-11T19:01:25.815Z,102162.59
2022-10-11T19:03:56.378Z,102163.84
2022-10-11T19:06:26.222Z,102164.19
2022-10-11T19:08:54.950Z,102155.72
2022-10-11T19:11:22.722Z,102159.72
2022-10-11T19:13:55.462Z,102157.47
2022-10-11T19:16:21.996Z,102157.47
2022-10-11T19:18:50.065Z,102160.00
2022-10-11T19:21:16.757Z,102176.28
2022-10-11T19:23:45.876Z,102169.75
2022-10-11T19:26:15.208Z,102172.28
2022-10-11T19:28:42.416Z,102168.97
2022-10-11T19:31:11.438Z,102173.09
2022-10-11T19:33:37.818Z,102167.03
2022-10-11T19:36:05.682Z,102169.06
2022-10-11T19:38:35.877Z,102165.88
2022-10-11T19:41:04.653Z,102162.53
2022-10-11T19:43:31.966Z,102162.53
2022-10-11T19:46:06.635Z,102160.94
2022-10-11T19:48:37.629Z,102170.00
2022-10-11T19:51:05.771Z,102167.66
2022-10-11T19:53:32.849Z,102161.91
2022-10-11T19:56:04.988Z,102168.91
2022-10-11T19:58:31.471Z,102169.84
2022-10-11T20:01:10.481Z,102169.53
2022-10-11T20:03:37.893Z,102172.72
2022-10-11T20:06:07.077Z,102165.38
2022-10-11T20:08:34.525Z,102170.44
2022-10-11T20:11:03.783Z,102166.28
2022-10-11T20:13:34.699Z,102174.91
2022-10-11T20:16:04.688Z,102175.38
2022-10-11T20:18:31.582Z,102170.09
2022-10-11T20:21:00.955Z,102168.84
2022-10-11T20:23:27.937Z,102169.31
2022-10-11T20:26:09.186Z,102164.88
2022-10-11T20:28:36.520Z,102171.38
2022-10-11T20:31:10.453Z,102168.19
2022-10-11T20:33:37.706Z,102169.47
2022-10-11T20:36:08.321Z,102162.94
2022-10-11T20:38:36.341Z,102160.84
2022-10-11T20:41:07.925Z,102163.41
2022-10-11T20:43:34.685Z,102163.41
2022-10-11T20:46:07.220Z,102169.94
2022-10-11T20:48:35.375Z,102171.19
2022-10-11T20:51:02.465Z,102164.66
2022-10-11T20:53:29.342Z,102164.34
2022-10-11T20:55:56.715Z,102165.91
2022-10-11T20:58:23.755Z,102157.00
2022-10-11T21:00:50.246Z,102164.34
2022-10-11T21:03:17.372Z,102162.41
2022-10-11T21:05:44.205Z,102168.47
2022-10-11T21:08:10.932Z,102159.53
2022-10-11T21:10:37.863Z,102161.59
2022-10-11T21:13:04.837Z,102169.03
2022-10-11T21:15:32.107Z,102164.56
2022-10-11T21:17:59.623Z,102162.97
2022-10-11T21:20:26.247Z,102171.22
2022-10-11T21:22:52.835Z,102172.16
2022-10-11T21:25:19.305Z,102172.16
2022-10-11T21:27:45.839Z,102174.69
2022-10-11T21:30:12.323Z,102170.25
2022-10-11T21:32:38.747Z,102168.31
2022-10-11T21:35:05.270Z,102166.72
2022-10-11T21:37:31.937Z,102174.53
2022-10-11T21:39:59.065Z,102177.84
2022-10-11T21:42:29.860Z,102163.78
2022-10-11T21:44:58.831Z,102167.78
2022-10-11T21:47:26.000Z,102171.91
2022-10-11T21:49:52.712Z,102175.22
2022-10-11T21:52:19.598Z,102171.56
2022-10-11T21:54:46.564Z,102177.78
2022-10-11T21:57:13.051Z,102176.97
2022-10-11T21:59:39.691Z,102181.09
2022-10-11T22:02:06.258Z,102172.19
2022-10-11T22:04:32.728Z,102165.31
2022-10-11T22:06:59.126Z,102173.91
2022-10-11T22:09:27.768Z,102170.72
2022-10-11T22:11:54.333Z,102165.78
2022-10-11T22:14:20.863Z,102166.25
2022-10-11T22:16:47.967Z,102167.97
2022-10-11T22:19:14.389Z,102170.38
2022-10-11T22:21:44.916Z,102183.09
2022-10-11T22:24:12.097Z,102174.50
2022-10-11T22:26:38.534Z,102179.91
2022-10-11T22:29:04.950Z,102184.03
2022-10-11T22:31:31.484Z,102176.69
2022-10-11T22:33:59.963Z,102178.28
2022-10-11T22:36:28.886Z,102172.25
2022-10-11T22:38:55.365Z,102173.81
2022-10-11T22:41:22.383Z,102183.69
2022-10-11T22:43:49.191Z,102182.09
2022-10-11T22:46:16.146Z,102189.91
2022-10-11T22:48:42.995Z,102187.03
2022-10-11T22:51:09.591Z,102187.03
2022-10-11T22:53:35.988Z,102185.88
2022-10-11T22:56:02.409Z,102183.47
2022-10-11T22:58:28.864Z,102184.31
2022-10-11T23:00:55.267Z,102184.31
2022-10-11T23:03:21.801Z,102185.56
2022-10-11T23:05:56.307Z,102186.81
2022-10-11T23:08:22.863Z,102189.66
2022-10-11T23:10:49.299Z,102191.75
2022-10-11T23:13:15.810Z,102184.88
2022-10-11T23:15:42.330Z,102183.63
2022-10-11T23:18:08.753Z,102187.72
2022-10-11T23:20:35.173Z,102183.28
2022-10-11T23:23:01.575Z,102197.94
2022-10-11T23:25:27.995Z,102186.16
2022-10-11T23:27:54.399Z,102192.66
2022-10-11T23:30:20.794Z,102186.63
2022-10-11T23:32:47.258Z,102192.66
2022-10-11T23:35:13.764Z,102199.19
2022-10-11T23:37:40.322Z,102190.28
2022-10-11T23:40:07.886Z,102194.75
2022-10-11T23:42:34.254Z,102191.88
2022-10-11T23:45:00.678Z,102193.47
2022-10-11T23:47:27.066Z,102194.38
2022-10-11T23:49:53.474Z,102200.13
2022-10-11T23:52:19.885Z,102194.38
2022-10-11T23:54:46.358Z,102196.00
2022-10-11T23:57:12.869Z,102193.13
2022-10-11T23:59:39.292Z,102198.06
